Huntington Beach, CA

3:25 PM PDT on August 28, 2015 (GMT -0700)
Monterey Lane | | Change Station
CLOSE
Current Station
Personal Weather Station
Location: Huntington Beach, CA
Elevation: 16 ft
Nearby Weather Stations

Elev 16 ft 33.73 °N, 118.05 °W | Updated 0 second ago

Clear
Clear
84.4 °F
Feels Like 85 °F
N
8.3
Wind Variable Wind from SW
Gusts 9.8 mph

Today
High -- | Low -- °F
--% Chance of Precip.
Yesterday
High -- | Low -- °F
Precip. -- in
6:23 AM 7:23 PM
Waxing Gibbous, 99% visible
Pressure 29.84 in
Visibility 10.0 miles
Clouds Few 6000 ft
Few 28000 ft
Heat Index 85 °F
Dew Point 63 °F
Humidity 48%
Rainfall 0.00 in
Snow Depth Not available.
UV 8 out of 12
Pollen 6.50 out of 12
Air Quality Not available.
Flu Activity Not available.
METAR KSLI 282158Z 21012KT 10SM FEW060 FEW280 33/18 A2983 RMK AO2A SLP104 T03260179
Pressure 29.84 in
Visibility 10.0 miles
Clouds Few 6000 ft
Few 28000 ft
Heat Index 85 °F
Dew Point 63 °F
Humidity 48%
Rainfall 0.00 in
Snow Depth Not available.
UV 8 out of 12
Pollen 6.50 out of 12
Air Quality Not available.
Flu Activity Not available.
METAR KSLI 282158Z 21012KT 10SM FEW060 FEW280 33/18 A2983 RMK AO2A SLP104 T03260179

10-Day Weather Forecast

×

Almanac

Astronomy

Aug. 28, 2015 Rise Set
Actual Time
Civil Twilight
Nautical Twilight
Astronomical Twilight
Moon
Length of Visible Light
Length of Day
Tomorrow will be .
, % of the Moon is Illuminated

Today's Extremes

State Highs State Lows

Community

WunderPhotos

Upload Photos

1,850,515 photos uploaded!

WunderBlogs® & News

Nearby

Air Quality

  Air Quality AQ Index Pollutant
Not available.

Snow Depth

Station Depth Elevation

Earthquake Activity

City Distance Mag. Time & Date
Minimum magnitude displayed is 2.5.

Coastal Water Temperatures

Place Temperature

Stations

Nearby Weather Stations

Station Location Temp. Windchill Dew Point Humidity Wind Precip. Elev Updated Type